createdAt,value
2022-10-20T00:01:15.049Z,98465.06
2022-10-20T00:03:17.741Z,98467.78
2022-10-20T00:05:20.370Z,98466.69
2022-10-20T00:07:23.469Z,98471.03
2022-10-20T00:09:26.368Z,98473.63
2022-10-20T00:11:30.491Z,98481.47
2022-10-20T00:13:33.471Z,98483.88
2022-10-20T00:15:36.298Z,98482.78
2022-10-20T00:17:38.918Z,98486.13
2022-10-20T00:19:41.546Z,98490.31
2022-10-20T00:21:44.178Z,98483.78
2022-10-20T00:23:46.986Z,98485.38
2022-10-20T00:25:50.364Z,98484.88
2022-10-20T00:27:52.985Z,98501.69
2022-10-20T00:29:55.585Z,98496.56
2022-10-20T00:31:58.227Z,98496.88
2022-10-20T00:34:00.878Z,98497.97
2022-10-20T00:36:06.796Z,98502.00
2022-10-20T00:38:09.490Z,98492.88
2022-10-20T00:40:12.601Z,98500.09
2022-10-20T00:42:16.891Z,98503.91
2022-10-20T00:44:47.253Z,98510.78
2022-10-20T00:46:49.990Z,98512.72
2022-10-20T00:48:57.166Z,98517.38
2022-10-20T00:50:59.785Z,98516.06
2022-10-20T00:53:03.041Z,98520.09
2022-10-20T00:55:07.845Z,98518.97
2022-10-20T00:57:10.619Z,98528.84
2022-10-20T00:59:16.852Z,98528.38
2022-10-20T01:01:19.585Z,98534.28
2022-10-20T01:03:35.832Z,98526.25
2022-10-20T01:05:38.796Z,98523.66
2022-10-20T01:07:41.572Z,98528.28
2022-10-20T01:09:44.429Z,98534.34
2022-10-20T01:11:58.344Z,98533.75
2022-10-20T01:14:13.144Z,98541.81
2022-10-20T01:16:43.506Z,98546.25
2022-10-20T01:19:37.371Z,98554.75
2022-10-20T01:21:58.107Z,98551.44
2022-10-20T01:24:26.436Z,98557.38
2022-10-20T01:26:31.789Z,98549.31
2022-10-20T01:28:52.226Z,98555.56
2022-10-20T01:31:00.163Z,98557.47
2022-10-20T01:35:52.583Z,98564.47
2022-10-20T01:38:05.034Z,98579.94
2022-10-20T01:40:10.387Z,98581.25
2022-10-20T01:42:20.038Z,98582.38
2022-10-20T01:44:27.041Z,98577.56
2022-10-20T01:46:30.840Z,98579.44
2022-10-20T01:48:35.466Z,98590.03
2022-10-20T01:50:40.354Z,98590.03
2022-10-20T01:52:42.973Z,98588.22
2022-10-20T01:54:45.567Z,98589.22
2022-10-20T01:57:19.642Z,98590.81
2022-10-20T01:59:51.660Z,98590.44
2022-10-20T02:02:12.036Z,98596.09
2022-10-20T02:04:15.532Z,98605.66
2022-10-20T02:06:33.726Z,98610.88
2022-10-20T02:08:45.261Z,98605.75
2022-10-20T02:10:56.001Z,98606.97
2022-10-20T02:13:06.132Z,98613.91
2022-10-20T02:15:12.664Z,98611.38
2022-10-20T02:17:19.274Z,98614.19
2022-10-20T02:19:25.935Z,98613.25
2022-10-20T02:21:28.940Z,98609.63
2022-10-20T02:23:36.586Z,98619.50
2022-10-20T02:25:42.052Z,98618.25
2022-10-20T02:27:48.508Z,98625.69
2022-10-20T02:30:00.832Z,98619.84
2022-10-20T02:32:03.671Z,98629.16
2022-10-20T02:34:07.550Z,98625.75
2022-10-20T02:36:16.016Z,98622.81
2022-10-20T02:38:18.764Z,98631.03
2022-10-20T02:40:22.520Z,98628.13
2022-10-20T02:42:25.200Z,98637.66
2022-10-20T02:44:27.870Z,98635.84
2022-10-20T02:46:30.758Z,98628.84
2022-10-20T02:48:33.457Z,98637.00
2022-10-20T02:50:36.828Z,98633.78
2022-10-20T02:52:40.604Z,98635.97
2022-10-20T02:54:46.375Z,98636.84
2022-10-20T02:56:48.969Z,98649.69
2022-10-20T02:58:51.749Z,98644.56
2022-10-20T03:00:54.284Z,98638.09
2022-10-20T03:02:57.378Z,98638.41
2022-10-20T03:04:59.981Z,98637.88
2022-10-20T03:07:02.669Z,98645.78
2022-10-20T03:09:05.851Z,98637.44
2022-10-20T03:11:08.687Z,98646.97
2022-10-20T03:13:11.593Z,98642.13
2022-10-20T03:15:14.219Z,98646.75
2022-10-20T03:17:16.824Z,98648.66
2022-10-20T03:19:19.451Z,98635.75
2022-10-20T03:21:22.204Z,98646.53
2022-10-20T03:23:24.895Z,98644.09
2022-10-20T03:25:27.530Z,98646.88
2022-10-20T03:27:30.126Z,98647.47
2022-10-20T03:29:33.057Z,98648.88
2022-10-20T03:31:35.721Z,98655.66
2022-10-20T03:33:38.398Z,98653.81
2022-10-20T03:35:40.978Z,98651.41
2022-10-20T03:37:43.591Z,98661.94
2022-10-20T03:39:46.311Z,98660.63
2022-10-20T03:41:49.019Z,98654.13
2022-10-20T03:43:51.741Z,98663.34
2022-10-20T03:46:05.630Z,98657.91
2022-10-20T03:48:08.566Z,98660.94
2022-10-20T03:50:11.218Z,98653.88
2022-10-20T03:52:13.812Z,98653.34
2022-10-20T03:54:16.359Z,98657.03
2022-10-20T03:56:21.138Z,98657.56
2022-10-20T03:58:24.241Z,98651.59
2022-10-20T04:00:26.961Z,98648.28
2022-10-20T04:02:34.852Z,98654.50
2022-10-20T04:04:37.632Z,98654.50
2022-10-20T04:06:40.346Z,98649.66
2022-10-20T04:08:43.032Z,98664.56
2022-10-20T04:10:45.666Z,98668.59
2022-10-20T04:12:48.207Z,98671.03
2022-10-20T04:14:52.052Z,98674.81
2022-10-20T04:16:54.671Z,98684.28
2022-10-20T04:18:57.448Z,98676.94
2022-10-20T04:21:00.265Z,98681.00
2022-10-20T04:23:02.871Z,98688.03
2022-10-20T04:25:06.078Z,98688.81
2022-10-20T04:27:09.131Z,98690.66
2022-10-20T04:29:11.709Z,98696.84
2022-10-20T04:31:14.490Z,98692.97
2022-10-20T04:33:17.567Z,98701.84
2022-10-20T04:35:20.143Z,98700.16
2022-10-20T04:37:22.771Z,98702.00
2022-10-20T04:39:25.673Z,98700.84
2022-10-20T04:41:28.348Z,98704.88
2022-10-20T04:43:32.375Z,98704.78
2022-10-20T04:45:34.921Z,98708.53
2022-10-20T04:47:38.076Z,98716.00
2022-10-20T04:49:41.537Z,98719.47
2022-10-20T04:51:44.178Z,98725.09
2022-10-20T04:53:47.320Z,98722.13
2022-10-20T04:55:57.116Z,98723.56
2022-10-20T04:57:59.722Z,98714.03
2022-10-20T05:00:02.540Z,98720.97
2022-10-20T05:02:06.116Z,98716.88
2022-10-20T05:04:10.027Z,98725.47
2022-10-20T05:06:14.713Z,98729.69
2022-10-20T05:08:17.316Z,98729.41
2022-10-20T05:10:21.108Z,98732.34
2022-10-20T05:12:23.664Z,98720.66
2022-10-20T05:14:26.466Z,98729.03
2022-10-20T05:16:29.074Z,98725.19
2022-10-20T05:18:32.571Z,98740.84
2022-10-20T05:20:41.077Z,98732.38
2022-10-20T05:22:48.551Z,98734.59
2022-10-20T05:24:51.138Z,98736.03
2022-10-20T05:26:54.032Z,98750.66
2022-10-20T05:28:56.641Z,98743.00
2022-10-20T05:31:07.538Z,98746.53
2022-10-20T05:33:11.226Z,98750.56
2022-10-20T05:35:13.821Z,98755.38
2022-10-20T05:37:16.418Z,98757.81
2022-10-20T05:39:18.992Z,98764.78
2022-10-20T05:41:26.234Z,98758.03
2022-10-20T05:43:28.845Z,98762.06
2022-10-20T05:45:31.418Z,98757.56
2022-10-20T05:47:34.679Z,98760.19
2022-10-20T05:49:37.395Z,98770.75
2022-10-20T05:51:40.147Z,98768.75
2022-10-20T05:53:44.153Z,98770.88
2022-10-20T05:55:46.758Z,98776.81
2022-10-20T05:57:50.790Z,98787.91
2022-10-20T05:59:53.323Z,98783.28
2022-10-20T06:01:55.930Z,98779.72
2022-10-20T06:04:00.577Z,98789.31
2022-10-20T06:06:04.851Z,98790.34
2022-10-20T06:08:07.450Z,98784.81
2022-10-20T06:10:10.284Z,98791.16
2022-10-20T06:12:13.025Z,98789.34
2022-10-20T06:14:17.526Z,98796.59
2022-10-20T06:16:25.547Z,98805.16
2022-10-20T06:18:28.633Z,98792.28
2022-10-20T06:20:31.264Z,98798.22
2022-10-20T06:22:34.251Z,98796.06
2022-10-20T06:24:37.246Z,98787.16
2022-10-20T06:26:40.912Z,98793.34
2022-10-20T06:28:45.018Z,98798.09
2022-10-20T06:30:47.985Z,98790.44
2022-10-20T06:32:55.180Z,98802.28
2022-10-20T06:34:57.819Z,98797.50
2022-10-20T06:37:00.449Z,98788.06
2022-10-20T06:39:05.146Z,98793.38
2022-10-20T06:41:10.753Z,98789.84
2022-10-20T06:43:13.323Z,98801.13
2022-10-20T06:45:17.154Z,98811.63
2022-10-20T06:47:20.480Z,98804.75
2022-10-20T06:49:23.540Z,98808.41
2022-10-20T06:51:27.855Z,98810.25
2022-10-20T06:53:32.352Z,98807.03
2022-10-20T06:55:34.963Z,98810.59
2022-10-20T06:57:37.723Z,98797.69
2022-10-20T06:59:40.332Z,98798.94
2022-10-20T07:01:43.126Z,98804.19
2022-10-20T07:03:48.236Z,98812.50
2022-10-20T07:05:50.958Z,98800.44
2022-10-20T07:07:53.743Z,98802.16
2022-10-20T07:09:56.335Z,98803.00
2022-10-20T07:11:58.983Z,98804.78
2022-10-20T07:14:02.718Z,98813.34
2022-10-20T07:16:06.526Z,98806.09
2022-10-20T07:18:09.099Z,98802.50
2022-10-20T07:20:11.759Z,98796.03
2022-10-20T07:22:14.576Z,98800.34
2022-10-20T07:24:17.332Z,98799.22
2022-10-20T07:26:22.630Z,98802.78
2022-10-20T07:28:25.183Z,98789.19
2022-10-20T07:30:27.732Z,98793.06
2022-10-20T07:32:31.564Z,98794.81
2022-10-20T07:34:34.182Z,98791.59
2022-10-20T07:36:37.497Z,98791.94
2022-10-20T07:38:40.138Z,98789.31
2022-10-20T07:40:42.756Z,98784.34
2022-10-20T07:42:45.421Z,98776.91
2022-10-20T07:44:48.229Z,98793.28
2022-10-20T07:46:51.105Z,98790.19
2022-10-20T07:48:54.403Z,98796.09
2022-10-20T07:53:17.095Z,98783.25
2022-10-20T07:55:37.773Z,98786.63
2022-10-20T07:57:41.639Z,98788.84
2022-10-20T07:59:44.253Z,98788.59
2022-10-20T08:01:47.234Z,98782.34
2022-10-20T08:03:50.121Z,98779.13
2022-10-20T08:05:53.180Z,98787.84
2022-10-20T08:07:58.213Z,98783.63
2022-10-20T08:10:01.473Z,98786.34
2022-10-20T08:12:05.830Z,98776.72
2022-10-20T08:14:08.867Z,98781.22
2022-10-20T08:16:18.735Z,98785.56
2022-10-20T08:18:23.712Z,98784.03
2022-10-20T08:20:29.630Z,98794.19
2022-10-20T08:22:32.512Z,98788.50
2022-10-20T08:24:35.409Z,98778.53
2022-10-20T08:26:38.303Z,98784.44
2022-10-20T08:28:41.225Z,98781.41
2022-10-20T08:30:43.918Z,98782.66
2022-10-20T08:32:50.919Z,98783.63
2022-10-20T08:34:53.786Z,98782.25
2022-10-20T08:36:56.465Z,98781.50
2022-10-20T08:39:03.483Z,98792.78
2022-10-20T08:41:18.769Z,98780.25
2022-10-20T08:43:21.516Z,98774.66
2022-10-20T08:45:26.870Z,98777.44
2022-10-20T08:47:37.215Z,98777.66
2022-10-20T08:49:40.237Z,98786.34
2022-10-20T08:51:42.949Z,98776.53
2022-10-20T08:53:47.337Z,98779.91
2022-10-20T08:55:51.398Z,98785.06
2022-10-20T08:58:04.947Z,98784.63
2022-10-20T09:00:15.368Z,98773.19
2022-10-20T09:02:18.202Z,98780.13
2022-10-20T09:04:27.507Z,98778.84
2022-10-20T09:06:30.680Z,98776.72
2022-10-20T09:08:38.414Z,98783.31
2022-10-20T09:10:51.467Z,98770.78
2022-10-20T09:12:54.249Z,98777.06
2022-10-20T09:14:57.614Z,98781.38
2022-10-20T09:17:00.954Z,98775.78
2022-10-20T09:19:06.922Z,98783.53
2022-10-20T09:21:18.423Z,98777.53
2022-10-20T09:23:41.863Z,98770.81
2022-10-20T09:25:46.105Z,98774.97
2022-10-20T09:27:49.528Z,98775.16
2022-10-20T09:29:52.525Z,98776.59
2022-10-20T09:31:57.203Z,98780.44
2022-10-20T09:34:00.381Z,98779.00
2022-10-20T09:36:13.674Z,98779.47
2022-10-20T09:38:24.025Z,98778.34
2022-10-20T09:40:27.885Z,98779.97
2022-10-20T09:42:36.468Z,98784.00
2022-10-20T09:44:54.196Z,98783.50
2022-10-20T09:46:56.890Z,98779.31
2022-10-20T09:48:59.683Z,98777.72
2022-10-20T09:51:03.055Z,98780.28
2022-10-20T09:53:16.122Z,98784.59
2022-10-20T09:55:30.081Z,98786.06
2022-10-20T09:57:32.842Z,98784.25
2022-10-20T09:59:46.348Z,98771.03
2022-10-20T10:02:02.098Z,98782.81
2022-10-20T10:04:09.023Z,98786.19
2022-10-20T10:06:21.376Z,98784.13
2022-10-20T10:08:27.586Z,98776.38
2022-10-20T10:10:31.917Z,98784.41
2022-10-20T10:12:36.421Z,98784.72
2022-10-20T10:14:51.616Z,98782.97
2022-10-20T10:16:55.192Z,98775.75
2022-10-20T10:19:03.582Z,98777.69
2022-10-20T10:21:12.288Z,98782.69
2022-10-20T10:23:27.819Z,98787.03
2022-10-20T10:25:30.718Z,98769.50
2022-10-20T10:27:37.559Z,98785.59
2022-10-20T10:29:40.659Z,98776.59
2022-10-20T10:31:58.061Z,98778.03
2022-10-20T10:34:13.096Z,98784.63
2022-10-20T10:36:36.547Z,98775.91
2022-10-20T10:38:39.558Z,98782.31
2022-10-20T10:41:06.209Z,98783.28
2022-10-20T10:43:48.655Z,98792.47
2022-10-20T10:46:05.405Z,98778.31
2022-10-20T10:48:20.938Z,98780.25
2022-10-20T10:50:57.429Z,98779.94
2022-10-20T10:53:09.188Z,98782.22
2022-10-20T10:55:47.692Z,98776.22
2022-10-20T10:57:57.736Z,98779.63
2022-10-20T11:00:07.508Z,98787.97
2022-10-20T11:02:36.774Z,98775.91
2022-10-20T11:04:46.528Z,98785.06
2022-10-20T11:07:12.073Z,98781.22
2022-10-20T11:09:27.497Z,98780.91
2022-10-20T11:12:00.791Z,98770.00
2022-10-20T11:14:21.613Z,98780.09
2022-10-20T11:16:37.166Z,98777.69
2022-10-20T11:19:10.504Z,98769.75
2022-10-20T11:21:50.219Z,98779.91
2022-10-20T11:24:17.588Z,98773.63
2022-10-20T11:26:29.308Z,98784.75
2022-10-20T11:28:46.955Z,98775.25
2022-10-20T11:30:51.085Z,98777.19
2022-10-20T11:33:04.446Z,98772.06
2022-10-20T11:35:21.915Z,98781.53
2022-10-20T11:37:31.802Z,98774.31
2022-10-20T11:39:39.729Z,98780.09
2022-10-20T11:41:53.965Z,98774.97
2022-10-20T11:44:35.308Z,98784.44
2022-10-20T11:47:00.596Z,98781.38
2022-10-20T11:49:04.623Z,98788.59
2022-10-20T11:51:19.513Z,98787.97
2022-10-20T11:53:36.475Z,98788.13
2022-10-20T11:56:23.230Z,98790.19
2022-10-20T11:58:43.702Z,98790.78
2022-10-20T12:01:05.795Z,98787.22
2022-10-20T12:03:08.159Z,98789.47
2022-10-20T12:05:19.433Z,98792.97
2022-10-20T12:08:17.547Z,98795.06
2022-10-20T12:10:24.551Z,98791.22
2022-10-20T12:12:50.094Z,98794.06
2022-10-20T12:15:00.643Z,98799.88
2022-10-20T12:17:26.291Z,98796.81
2022-10-20T12:19:30.337Z,98800.03
2022-10-20T12:21:54.555Z,98796.81
2022-10-20T12:24:03.305Z,98793.13
2022-10-20T12:26:34.561Z,98799.28
2022-10-20T12:28:42.354Z,98797.50
2022-10-20T12:30:53.149Z,98801.53
2022-10-20T12:33:01.094Z,98800.88
2022-10-20T12:35:12.788Z,98795.44
2022-10-20T12:37:36.636Z,98799.03
2022-10-20T12:39:40.290Z,98798.06
2022-10-20T12:41:56.693Z,98797.91
2022-10-20T12:44:04.714Z,98794.19
2022-10-20T12:46:11.816Z,98795.66
2022-10-20T12:48:22.775Z,98797.88
2022-10-20T12:50:36.069Z,98797.88
2022-10-20T12:52:40.567Z,98805.38
2022-10-20T12:54:48.451Z,98799.94
2022-10-20T12:56:56.660Z,98810.22
2022-10-20T12:59:28.918Z,98806.53
2022-10-20T13:01:31.831Z,98808.75
2022-10-20T13:03:37.402Z,98807.63
2022-10-20T13:05:43.880Z,98816.31
2022-10-20T13:07:46.440Z,98810.41
2022-10-20T13:10:00.363Z,98811.53
2022-10-20T13:12:26.535Z,98806.38
2022-10-20T13:14:41.870Z,98815.38
2022-10-20T13:16:58.077Z,98820.03
2022-10-20T13:19:01.831Z,98816.63
2022-10-20T13:21:28.614Z,98812.47
2022-10-20T13:23:46.904Z,98813.44
2022-10-20T13:25:55.384Z,98812.84
2022-10-20T13:28:13.057Z,98812.84
2022-10-20T13:30:21.701Z,98814.56
2022-10-20T13:33:11.254Z,98820.84
2022-10-20T13:35:27.477Z,98821.47
2022-10-20T13:38:11.037Z,98833.00
2022-10-20T13:40:23.547Z,98833.84
2022-10-20T13:42:50.210Z,98838.97
2022-10-20T13:45:13.989Z,98837.88
2022-10-20T13:47:35.283Z,98835.44
2022-10-20T13:49:55.036Z,98836.38
2022-10-20T13:52:06.250Z,98832.84
2022-10-20T13:54:25.885Z,98833.34
2022-10-20T13:56:42.164Z,98824.31
2022-10-20T14:01:25.089Z,98843.13
2022-10-20T14:03:29.310Z,98825.97
2022-10-20T14:05:39.435Z,98842.84
2022-10-20T14:07:44.224Z,98830.59
2022-10-20T14:09:56.614Z,98839.88
2022-10-20T14:12:04.314Z,98847.41
2022-10-20T14:14:07.087Z,98843.50
2022-10-20T14:16:20.154Z,98846.53
2022-10-20T14:18:32.670Z,98844.00
2022-10-20T14:20:41.928Z,98847.66
2022-10-20T14:22:45.272Z,98845.25
2022-10-20T14:24:50.833Z,98845.53
2022-10-20T14:26:54.939Z,98854.47
2022-10-20T14:28:57.750Z,98847.41
2022-10-20T14:31:01.153Z,98845.00
2022-10-20T14:33:04.126Z,98841.94
2022-10-20T14:35:39.588Z,98849.53
2022-10-20T14:37:51.431Z,98847.09
2022-10-20T14:39:54.137Z,98840.66
2022-10-20T14:41:59.185Z,98848.53
2022-10-20T14:44:12.942Z,98852.38
2022-10-20T14:46:33.999Z,98855.13
2022-10-20T14:48:44.693Z,98849.16
2022-10-20T14:50:47.622Z,98847.53
2022-10-20T14:52:53.833Z,98844.31
2022-10-20T14:54:57.282Z,98855.13
2022-10-20T14:57:22.994Z,98850.03
2022-10-20T14:59:31.340Z,98852.44
2022-10-20T15:01:34.090Z,98845.03
2022-10-20T15:03:37.001Z,98852.63
2022-10-20T15:05:45.325Z,98851.19
2022-10-20T15:07:48.427Z,98845.09
2022-10-20T15:09:54.490Z,98845.09
2022-10-20T15:11:57.358Z,98845.09
2022-10-20T15:14:00.673Z,98850.91
2022-10-20T15:16:05.015Z,98842.50
2022-10-20T15:18:07.573Z,98844.75
2022-10-20T15:20:32.496Z,98843.63
2022-10-20T15:22:35.485Z,98850.50
2022-10-20T15:24:39.147Z,98849.41
2022-10-20T15:26:41.767Z,98857.38
2022-10-20T15:28:47.721Z,98863.78
2022-10-20T15:30:50.608Z,98852.06
2022-10-20T15:32:54.126Z,98846.44
2022-10-20T15:34:56.725Z,98847.22
2022-10-20T15:36:59.300Z,98861.66
2022-10-20T15:39:02.492Z,98860.88
2022-10-20T15:41:05.175Z,98860.25
2022-10-20T15:43:14.342Z,98857.34
2022-10-20T15:45:20.859Z,98858.06
2022-10-20T15:47:23.511Z,98855.34
2022-10-20T15:49:26.219Z,98861.28
2022-10-20T15:51:31.834Z,98855.34
2022-10-20T15:53:34.391Z,98860.00
2022-10-20T15:55:41.349Z,98853.91
2022-10-20T15:57:44.280Z,98851.94
2022-10-20T15:59:47.023Z,98859.78
2022-10-20T16:01:49.675Z,98852.75
2022-10-20T16:03:52.392Z,98854.47
2022-10-20T16:05:54.961Z,98850.44
2022-10-20T16:07:57.709Z,98851.56
2022-10-20T16:10:00.351Z,98851.56
2022-10-20T16:12:05.653Z,98856.00
2022-10-20T16:14:09.503Z,98846.53
2022-10-20T16:16:19.057Z,98855.50
2022-10-20T16:18:21.675Z,98850.56
2022-10-20T16:20:24.360Z,98846.22
2022-10-20T16:22:27.072Z,98859.03
2022-10-20T16:24:30.564Z,98853.09
2022-10-20T16:26:33.148Z,98852.09
2022-10-20T16:28:36.951Z,98859.56
2022-10-20T16:30:39.841Z,98855.34
2022-10-20T16:32:42.736Z,98863.53
2022-10-20T16:34:45.632Z,98847.28
2022-10-20T16:36:50.330Z,98861.72
2022-10-20T16:38:57.378Z,98855.03
2022-10-20T16:41:02.303Z,98855.88
2022-10-20T16:43:04.976Z,98854.88
2022-10-20T16:45:08.504Z,98871.00
2022-10-20T16:47:11.630Z,98872.25
2022-10-20T16:49:14.276Z,98867.81
2022-10-20T16:51:18.237Z,98858.53
2022-10-20T16:53:20.946Z,98863.16
2022-10-20T16:55:23.540Z,98874.69
2022-10-20T16:57:27.058Z,98873.44
2022-10-20T16:59:29.836Z,98870.66
2022-10-20T17:01:32.541Z,98875.06
2022-10-20T17:03:36.519Z,98871.44
2022-10-20T17:05:39.147Z,98876.97
2022-10-20T17:07:41.722Z,98874.66
2022-10-20T17:09:45.709Z,98873.13
2022-10-20T17:11:48.388Z,98877.25
2022-10-20T17:13:51.812Z,98877.56
2022-10-20T17:15:57.093Z,98874.34
2022-10-20T17:17:59.681Z,98879.25
2022-10-20T17:20:02.243Z,98886.72
2022-10-20T17:22:06.407Z,98875.91
2022-10-20T17:24:11.895Z,98888.84
2022-10-20T17:26:21.660Z,98894.78
2022-10-20T17:28:24.253Z,98886.91
2022-10-20T17:30:29.703Z,98889.13
2022-10-20T17:32:32.402Z,98892.34
2022-10-20T17:34:37.261Z,98890.13
2022-10-20T17:36:39.839Z,98894.75
2022-10-20T17:38:43.548Z,98890.41
2022-10-20T17:40:51.042Z,98887.78
2022-10-20T17:42:53.726Z,98894.09
2022-10-20T17:44:58.166Z,98893.66
2022-10-20T17:47:04.485Z,98907.44
2022-10-20T17:49:07.245Z,98896.41
2022-10-20T17:51:14.537Z,98897.63
2022-10-20T17:53:19.225Z,98903.09
2022-10-20T17:55:24.307Z,98902.91
2022-10-20T17:57:29.187Z,98907.63
2022-10-20T17:59:42.401Z,98909.59
2022-10-20T18:01:58.187Z,98900.47
2022-10-20T18:04:05.665Z,98914.13
2022-10-20T18:06:11.428Z,98912.00
2022-10-20T18:08:14.300Z,98917.19
2022-10-20T18:10:16.889Z,98911.78
2022-10-20T18:12:19.984Z,98909.13
2022-10-20T18:14:22.717Z,98918.75
2022-10-20T18:16:27.148Z,98918.81
2022-10-20T18:18:29.771Z,98920.16
2022-10-20T18:20:34.357Z,98918.91
2022-10-20T18:22:37.269Z,98922.50
2022-10-20T18:24:40.272Z,98921.44
2022-10-20T18:26:43.975Z,98921.75
2022-10-20T18:28:50.288Z,98924.81
2022-10-20T18:30:52.963Z,98928.63
2022-10-20T18:32:55.607Z,98927.88
2022-10-20T18:34:58.143Z,98931.16
2022-10-20T18:37:03.670Z,98931.50
2022-10-20T18:39:07.220Z,98930.97
2022-10-20T18:41:11.047Z,98933.16
2022-10-20T18:43:13.694Z,98931.63
2022-10-20T18:45:16.336Z,98933.56
2022-10-20T18:47:18.908Z,98931.16
2022-10-20T18:49:21.726Z,98918.38
2022-10-20T18:51:24.867Z,98928.44
2022-10-20T18:53:29.197Z,98917.06
2022-10-20T18:55:31.768Z,98930.09
2022-10-20T18:57:39.356Z,98930.09
2022-10-20T18:59:42.404Z,98929.50
2022-10-20T19:01:45.966Z,98928.44
2022-10-20T19:03:51.208Z,98931.44
2022-10-20T19:06:02.282Z,98929.00
2022-10-20T19:08:05.309Z,98931.44
2022-10-20T19:10:08.169Z,98932.75
2022-10-20T19:12:10.939Z,98925.41
2022-10-20T19:14:14.488Z,98927.38
2022-10-20T19:16:23.479Z,98919.78
2022-10-20T19:18:29.708Z,98925.75
2022-10-20T19:20:32.437Z,98930.69
2022-10-20T19:22:35.146Z,98936.09
2022-10-20T19:24:40.712Z,98935.84
2022-10-20T19:26:57.041Z,98938.81
2022-10-20T19:29:16.105Z,98942.34
2022-10-20T19:31:29.485Z,98939.31
2022-10-20T19:33:32.098Z,98944.75
2022-10-20T19:35:35.420Z,98942.56
2022-10-20T19:37:38.159Z,98944.75
2022-10-20T19:39:42.279Z,98942.88
2022-10-20T19:41:45.806Z,98930.44
2022-10-20T19:43:49.336Z,98951.84
2022-10-20T19:45:51.903Z,98938.03
2022-10-20T19:47:54.519Z,98939.75
2022-10-20T19:49:57.366Z,98943.63
2022-10-20T19:52:00.123Z,98933.66
2022-10-20T19:54:03.205Z,98930.69
2022-10-20T19:56:07.470Z,98938.88
2022-10-20T20:00:17.767Z,98941.59
2022-10-20T20:02:21.907Z,98941.28
2022-10-20T20:04:24.907Z,98938.88
2022-10-20T20:06:28.934Z,98945.06
2022-10-20T20:08:32.358Z,98946.41
2022-10-20T20:10:36.124Z,98948.84
2022-10-20T20:12:38.827Z,98953.16
2022-10-20T20:14:41.528Z,98946.59
2022-10-20T20:16:46.391Z,98944.69
2022-10-20T20:18:50.052Z,98940.38
2022-10-20T20:20:52.667Z,98953.56
2022-10-20T20:22:55.227Z,98952.22
2022-10-20T20:24:57.824Z,98955.75
2022-10-20T20:27:00.418Z,98957.34
2022-10-20T20:29:04.079Z,98955.69
2022-10-20T20:31:15.696Z,98956.75
2022-10-20T20:33:18.372Z,98958.09
2022-10-20T20:35:20.910Z,98967.03
2022-10-20T20:37:23.510Z,98964.84
2022-10-20T20:39:26.184Z,98971.13
2022-10-20T20:41:31.052Z,98968.16
2022-10-20T20:43:35.686Z,98971.09
2022-10-20T20:45:41.078Z,98968.19
2022-10-20T20:47:48.064Z,98969.47
2022-10-20T20:49:50.602Z,98967.56
2022-10-20T20:51:53.339Z,98957.50
2022-10-20T20:53:56.184Z,98958.63
2022-10-20T20:56:00.863Z,98959.19
2022-10-20T20:58:03.525Z,98954.00
2022-10-20T21:00:07.174Z,98954.28
2022-10-20T21:02:10.719Z,98946.97
2022-10-20T21:04:13.628Z,98943.47
2022-10-20T21:06:17.985Z,98941.91
2022-10-20T21:08:23.032Z,98945.38
2022-10-20T21:10:25.858Z,98948.09
2022-10-20T21:12:31.758Z,98950.28
2022-10-20T21:14:37.641Z,98952.75
2022-10-20T21:16:40.508Z,98959.53
2022-10-20T21:18:46.130Z,98959.28
2022-10-20T21:20:48.836Z,98967.41
2022-10-20T21:22:51.490Z,98951.41
2022-10-20T21:24:54.042Z,98955.75
2022-10-20T21:26:56.998Z,98948.50
2022-10-20T21:28:59.889Z,98952.88
2022-10-20T21:31:07.010Z,98965.63
2022-10-20T21:33:09.614Z,98953.47
2022-10-20T21:35:12.220Z,98950.25
2022-10-20T21:37:14.782Z,98953.56
2022-10-20T21:39:17.579Z,98954.94
2022-10-20T21:41:25.592Z,98952.00
2022-10-20T21:43:31.049Z,98951.16
2022-10-20T21:45:33.873Z,98958.75
2022-10-20T21:47:36.523Z,98964.97
2022-10-20T21:49:39.112Z,98964.94
2022-10-20T21:52:03.204Z,98970.63
2022-10-20T21:54:17.370Z,98970.88
2022-10-20T21:56:20.047Z,98959.50
2022-10-20T21:58:22.664Z,98965.50
2022-10-20T22:00:25.203Z,98961.47
2022-10-20T22:02:27.778Z,98959.81
2022-10-20T22:04:30.805Z,98957.13
2022-10-20T22:06:33.376Z,98959.03
2022-10-20T22:08:40.923Z,98958.50
2022-10-20T22:10:43.620Z,98957.97
2022-10-20T22:12:46.206Z,98962.31
2022-10-20T22:14:48.825Z,98969.09
2022-10-20T22:16:51.527Z,98966.41
2022-10-20T22:18:58.393Z,98958.25
2022-10-20T22:21:13.711Z,98953.47
2022-10-20T22:23:16.572Z,98962.69
2022-10-20T22:25:19.178Z,98949.75
2022-10-20T22:27:31.516Z,98944.09
2022-10-20T22:29:44.309Z,98944.41
2022-10-20T22:31:47.195Z,98956.59
2022-10-20T22:33:51.320Z,98952.56
2022-10-20T22:35:54.021Z,98947.16
2022-10-20T22:37:56.693Z,98959.38
2022-10-20T22:39:59.382Z,98930.47
2022-10-20T22:42:02.093Z,98959.13
2022-10-20T22:44:05.227Z,98947.22
2022-10-20T22:46:08.484Z,98948.59
2022-10-20T22:48:11.043Z,98948.06
2022-10-20T22:50:13.594Z,98945.66
2022-10-20T22:52:16.166Z,98947.00
2022-10-20T22:54:19.005Z,98952.44
2022-10-20T22:56:23.779Z,98945.38
2022-10-20T22:58:26.350Z,98949.75
2022-10-20T23:00:29.186Z,98947.84
2022-10-20T23:02:32.062Z,98943.78
2022-10-20T23:04:34.707Z,98937.56
2022-10-20T23:06:37.577Z,98939.69
2022-10-20T23:08:46.146Z,98944.28
2022-10-20T23:10:58.993Z,98933.97
2022-10-20T23:13:01.595Z,98945.34
2022-10-20T23:15:05.278Z,98944.78
2022-10-20T23:17:08.281Z,98932.03
2022-10-20T23:19:10.908Z,98928.81
2022-10-20T23:21:14.602Z,98934.47
2022-10-20T23:23:17.182Z,98940.16
2022-10-20T23:25:19.751Z,98939.84
2022-10-20T23:27:22.666Z,98933.31
2022-10-20T23:29:25.458Z,98943.59
2022-10-20T23:31:28.020Z,98935.19
2022-10-20T23:33:30.610Z,98933.28
2022-10-20T23:35:36.497Z,98918.44
2022-10-20T23:37:40.145Z,98940.31
2022-10-20T23:39:42.950Z,98931.34
2022-10-20T23:41:45.583Z,98943.25
2022-10-20T23:43:48.156Z,98930.50
2022-10-20T23:45:50.719Z,98931.06
2022-10-20T23:47:53.304Z,98927.50
2022-10-20T23:49:56.129Z,98923.72
2022-10-20T23:51:58.679Z,98913.38
2022-10-20T23:54:01.237Z,98914.75
2022-10-20T23:56:04.298Z,98904.44
2022-10-20T23:58:06.898Z,98912.03
